Time;durP1;ratioP1;P1;durP2;ratioP2;P2;SDS_P1;SDS_P2;PMS_P1;PMS_P2;Temp;Humidity;BMP_temperature;BMP_pressure;BME280_temperature;BME280_humidity;BME280_pressure;Samples;Min_cycle;Max_cycle;Signal;HPM_P1;HPM_P2
2022/05/29 00:01:09;;;;;;;6.03;3.50;;;;;;;;;;4992092;28;20439;-75
2022/05/29 00:03:35;;;;;;;8.03;3.07;;;;;;;;;;5008584;28;20064;-75
2022/05/29 00:06:02;;;;;;;8.97;3.77;;;;;;;;;;5009251;28;20108;-74
2022/05/29 00:08:30;;;;;;;10.13;4.27;;;;;;;;;;5009533;28;20021;-75
2022/05/29 00:10:58;;;;;;;8.90;4.30;;;;;;;;;;5009362;28;20389;-74
2022/05/29 00:13:24;;;;;;;8.50;3.40;;;;;;;;;;4996019;28;20040;-74
2022/05/29 00:15:50;;;;;;;10.30;4.00;;;;;;;;;;5011945;28;20088;-74
2022/05/29 00:18:17;;;;;;;7.53;3.90;;;;;;;;;;5012033;28;20474;-75
2022/05/29 00:20:50;;;;;;;9.73;3.43;;;;;;;;;;5011981;28;20121;-73
2022/05/29 00:23:15;;;;;;;6.87;3.17;;;;;;;;;;5030720;28;20029;-74
2022/05/29 00:25:44;;;;;;;5.90;3.13;;;;;;;;;;5031690;28;20348;-73
2022/05/29 00:28:09;;;;;;;6.20;3.37;;;;;;;;;;5033069;28;20029;-73
2022/05/29 00:30:35;;;;;;;6.87;4.90;;;;;;;;;;5031728;28;20021;-73
2022/05/29 00:33:00;;;;;;;4.83;3.67;;;;;;;;;;5032996;28;20059;-74
2022/05/29 00:35:26;;;;;;;5.87;3.43;;;;;;;;;;5033041;28;20029;-73
2022/05/29 00:37:51;;;;;;;7.20;3.83;;;;;;;;;;5030929;28;20052;-74
2022/05/29 00:40:43;;;;;;;12.57;4.50;;;;;;;;;;5031636;28;20547;-74
2022/05/29 00:43:08;;;;;;;9.07;4.47;;;;;;;;;;5031353;28;20032;-74
2022/05/29 00:45:45;;;;;;;8.00;3.83;;;;;;;;;;5032814;28;20029;-74
2022/05/29 00:48:16;;;;;;;6.57;3.30;;;;;;;;;;5032850;28;20060;-74
2022/05/29 00:50:42;;;;;;;7.00;3.83;;;;;;;;;;5032746;28;20028;-74
2022/05/29 00:53:08;;;;;;;12.87;4.23;;;;;;;;;;5030972;28;20063;-74
2022/05/29 00:55:34;;;;;;;6.60;3.80;;;;;;;;;;5031614;28;20228;-75
2022/05/29 00:58:04;;;;;;;7.17;4.10;;;;;;;;;;5014353;28;20029;-74
2022/05/29 01:00:32;;;;;;;6.33;3.90;;;;;;;;;;5032613;28;20041;-74
2022/05/29 01:03:00;;;;;;;5.77;3.67;;;;;;;;;;5032153;28;20034;-75
2022/05/29 01:05:29;;;;;;;7.73;4.63;;;;;;;;;;5031059;28;20193;-73
2022/05/29 01:08:03;;;;;;;5.40;3.40;;;;;;;;;;5030821;28;20049;-73
2022/05/29 01:10:54;;;;;;;9.07;4.33;;;;;;;;;;5031145;28;20509;-74
2022/05/29 01:13:47;;;;;;;5.53;3.20;;;;;;;;;;5030790;28;20033;-74
2022/05/29 01:16:56;;;;;;;7.33;3.80;;;;;;;;;;5030796;28;20083;-74
2022/05/29 01:19:33;;;;;;;7.70;4.27;;;;;;;;;;5027672;28;20132;-74
2022/05/29 01:22:18;;;;;;;7.00;3.60;;;;;;;;;;5024561;28;20041;-75
2022/05/29 01:25:11;;;;;;;10.93;3.87;;;;;;;;;;5012510;28;20061;-73
2022/05/29 01:28:03;;;;;;;6.17;3.80;;;;;;;;;;5013627;28;20493;-74
2022/05/29 01:30:34;;;;;;;6.50;3.20;;;;;;;;;;5011063;28;20379;-74
2022/05/29 01:33:12;;;;;;;8.88;3.72;;;;;;;;;;5012391;28;20640;-74
2022/05/29 01:35:47;;;;;;;8.33;3.13;;;;;;;;;;5011014;28;20036;-74
2022/05/29 01:38:24;;;;;;;9.83;4.13;;;;;;;;;;5010972;28;20022;-75
2022/05/29 01:40:58;;;;;;;5.97;3.40;;;;;;;;;;5012222;28;20025;-74
2022/05/29 01:43:35;;;;;;;8.13;4.03;;;;;;;;;;5010618;28;20518;-74
2022/05/29 01:46:16;;;;;;;4.80;3.30;;;;;;;;;;5010391;28;20489;-74
2022/05/29 01:48:54;;;;;;;7.17;3.60;;;;;;;;;;5010480;28;20033;-74
2022/05/29 01:51:26;;;;;;;6.70;3.23;;;;;;;;;;5012189;28;20026;-74
2022/05/29 01:54:09;;;;;;;7.25;3.10;;;;;;;;;;5010295;28;20018;-74
2022/05/29 01:56:40;;;;;;;7.97;3.20;;;;;;;;;;5010476;28;20022;-73
2022/05/29 01:59:14;;;;;;;6.87;3.20;;;;;;;;;;5010186;28;20340;-75
2022/05/29 02:01:45;;;;;;;4.07;2.60;;;;;;;;;;5010359;28;20030;-75
2022/05/29 02:04:13;;;;;;;4.23;2.80;;;;;;;;;;5011668;28;20026;-74
2022/05/29 02:09:32;;;;;;;6.43;3.10;;;;;;;;;;5011429;28;20033;-74
2022/05/29 02:12:00;;;;;;;14.23;5.27;;;;;;;;;;5010075;28;20164;-73
2022/05/29 02:14:41;;;;;;;6.93;3.43;;;;;;;;;;5009976;28;20489;-74
2022/05/29 02:17:16;;;;;;;6.40;3.50;;;;;;;;;;5009746;28;20037;-74
2022/05/29 02:20:01;;;;;;;6.40;3.10;;;;;;;;;;5009935;28;20057;-74
2022/05/29 02:22:30;;;;;;;4.83;2.77;;;;;;;;;;5005769;28;20040;-74
2022/05/29 02:25:01;;;;;;;4.77;2.93;;;;;;;;;;5029134;28;20029;-74
2022/05/29 02:27:38;;;;;;;5.50;3.17;;;;;;;;;;5029661;28;20665;-74
2022/05/29 02:30:05;;;;;;;5.83;3.17;;;;;;;;;;5029357;28;20067;-75
2022/05/29 02:33:04;;;;;;;6.93;2.87;;;;;;;;;;5029245;28;20033;-74
2022/05/29 02:35:52;;;;;;;4.53;2.70;;;;;;;;;;5030531;28;20063;-75
2022/05/29 02:38:35;;;;;;;5.57;2.73;;;;;;;;;;5030557;28;20381;-73
2022/05/29 02:41:12;;;;;;;7.43;2.93;;;;;;;;;;5029311;28;20026;-73
2022/05/29 02:43:47;;;;;;;7.37;3.27;;;;;;;;;;5029440;28;20388;-75
2022/05/29 02:46:26;;;;;;;6.23;2.83;;;;;;;;;;5029108;28;20032;-73
2022/05/29 02:48:54;;;;;;;6.27;3.10;;;;;;;;;;5028787;28;20363;-72
2022/05/29 02:51:38;;;;;;;10.37;3.43;;;;;;;;;;5029402;28;20021;-73
2022/05/29 02:54:04;;;;;;;3.43;2.63;;;;;;;;;;5030218;28;20064;-74
2022/05/29 02:56:29;;;;;;;5.07;2.63;;;;;;;;;;5029144;28;20060;-73
2022/05/29 02:58:59;;;;;;;7.23;2.97;;;;;;;;;;5029920;28;20356;-73
2022/05/29 03:01:49;;;;;;;7.63;3.40;;;;;;;;;;5029072;28;20026;-73
2022/05/29 03:04:49;;;;;;;4.27;2.70;;;;;;;;;;5037399;28;20104;-74
2022/05/29 03:07:46;;;;;;;6.50;2.80;;;;;;;;;;5037265;28;20381;-73
2022/05/29 03:10:19;;;;;;;8.27;3.00;;;;;;;;;;5033507;28;20355;-74
2022/05/29 03:13:05;;;;;;;4.23;2.60;;;;;;;;;;5036943;28;20415;-74
2022/05/29 03:15:59;;;;;;;7.53;2.93;;;;;;;;;;5031871;28;20120;-74
2022/05/29 03:18:55;;;;;;;4.80;3.00;;;;;;;;;;5028598;28;20788;-73
2022/05/29 03:21:48;;;;;;;4.47;3.30;;;;;;;;;;5028459;28;20017;-74
2022/05/29 03:24:52;;;;;;;6.10;2.93;;;;;;;;;;5028348;28;20144;-74
2022/05/29 03:27:30;;;;;;;3.07;2.73;;;;;;;;;;5028234;28;20040;-74
2022/05/29 03:30:10;;;;;;;6.67;2.90;;;;;;;;;;5029514;28;20033;-73
2022/05/29 03:32:37;;;;;;;8.40;3.30;;;;;;;;;;5028331;28;20128;-73
2022/05/29 03:35:30;;;;;;;5.27;3.10;;;;;;;;;;5029594;28;20113;-75
2022/05/29 03:37:57;;;;;;;5.87;3.30;;;;;;;;;;5027801;28;20039;-73
2022/05/29 03:40:25;;;;;;;5.77;3.30;;;;;;;;;;5029449;28;20029;-74
2022/05/29 03:42:51;;;;;;;5.53;3.10;;;;;;;;;;5027968;28;20365;-74
2022/05/29 03:45:16;;;;;;;5.63;3.07;;;;;;;;;;5027627;28;20060;-74
2022/05/29 03:47:42;;;;;;;6.87;3.33;;;;;;;;;;5028082;28;20476;-75
2022/05/29 03:50:12;;;;;;;5.40;3.03;;;;;;;;;;5027744;28;20485;-74
2022/05/29 03:52:38;;;;;;;5.90;2.73;;;;;;;;;;5028017;28;20040;-74
2022/05/29 03:55:04;;;;;;;6.33;3.07;;;;;;;;;;5026763;28;20557;-74
2022/05/29 03:57:29;;;;;;;5.73;3.27;;;;;;;;;;5028421;28;20113;-74
2022/05/29 03:59:55;;;;;;;5.67;3.43;;;;;;;;;;5026526;28;20056;-72
2022/05/29 04:02:21;;;;;;;6.17;3.50;;;;;;;;;;5028271;28;20149;-75
2022/05/29 04:04:46;;;;;;;7.77;3.27;;;;;;;;;;5026871;28;20033;-74
2022/05/29 04:07:12;;;;;;;4.23;3.23;;;;;;;;;;5026824;28;20525;-74
2022/05/29 04:12:22;;;;;;;6.67;2.70;;;;;;;;;;5029544;28;20087;-74
2022/05/29 04:14:48;;;;;;;7.10;3.60;;;;;;;;;;5028113;28;20481;-75
2022/05/29 04:17:17;;;;;;;4.70;2.90;;;;;;;;;;5029209;28;20507;-74
2022/05/29 04:19:44;;;;;;;7.77;3.00;;;;;;;;;;5029009;28;20383;-74
2022/05/29 04:22:13;;;;;;;6.57;3.53;;;;;;;;;;5027387;28;20398;-74
2022/05/29 04:24:39;;;;;;;7.00;4.13;;;;;;;;;;5027564;28;20026;-74
2022/05/29 04:27:09;;;;;;;9.30;3.87;;;;;;;;;;5027291;28;20055;-73
2022/05/29 04:29:34;;;;;;;8.10;3.87;;;;;;;;;;5027468;28;20389;-75
2022/05/29 04:34:44;;;;;;;8.30;3.63;;;;;;;;;;5029157;28;20492;-74
2022/05/29 04:37:09;;;;;;;7.47;4.03;;;;;;;;;;5027248;28;20060;-74
2022/05/29 04:39:36;;;;;;;9.27;4.03;;;;;;;;;;5027512;28;20128;-73
2022/05/29 04:42:03;;;;;;;4.73;3.87;;;;;;;;;;5027503;28;20059;-75
2022/05/29 04:44:32;;;;;;;7.97;3.80;;;;;;;;;;5027369;28;20037;-74
2022/05/29 04:46:58;;;;;;;9.80;4.30;;;;;;;;;;5027402;28;20025;-73
2022/05/29 04:49:24;;;;;;;9.60;4.33;;;;;;;;;;5027668;28;20037;-73
2022/05/29 04:51:51;;;;;;;8.40;3.97;;;;;;;;;;5028146;28;20036;-75
2022/05/29 04:54:16;;;;;;;4.63;3.23;;;;;;;;;;5028503;28;20033;-74
2022/05/29 04:56:42;;;;;;;5.33;3.50;;;;;;;;;;5027983;28;20484;-74
2022/05/29 04:59:07;;;;;;;7.87;3.40;;;;;;;;;;5030873;28;20079;-74
2022/05/29 05:01:33;;;;;;;4.60;3.33;;;;;;;;;;5032391;28;20108;-75
2022/05/29 05:03:58;;;;;;;8.67;4.00;;;;;;;;;;5032765;28;20037;-72
2022/05/29 05:06:24;;;;;;;6.17;3.40;;;;;;;;;;5032343;28;20091;-74
2022/05/29 05:08:51;;;;;;;10.07;3.70;;;;;;;;;;5031138;28;20095;-74
2022/05/29 05:11:17;;;;;;;11.33;4.00;;;;;;;;;;5031285;28;20445;-74
2022/05/29 05:13:42;;;;;;;8.43;3.43;;;;;;;;;;5031292;28;20025;-74
2022/05/29 05:16:07;;;;;;;5.87;3.80;;;;;;;;;;5031950;28;20049;-74
2022/05/29 05:18:33;;;;;;;9.60;4.13;;;;;;;;;;5030457;28;20045;-73
2022/05/29 05:21:07;;;;;;;6.40;4.47;;;;;;;;;;5030449;28;20037;-73
2022/05/29 05:23:33;;;;;;;10.87;4.70;;;;;;;;;;5030688;28;20481;-74
2022/05/29 05:25:59;;;;;;;6.33;4.17;;;;;;;;;;5030649;28;20032;-73
2022/05/29 05:28:26;;;;;;;11.13;4.77;;;;;;;;;;5031150;28;20481;-74
2022/05/29 05:30:52;;;;;;;11.00;4.73;;;;;;;;;;5032097;28;20090;-74
2022/05/29 05:33:18;;;;;;;8.03;3.70;;;;;;;;;;5030477;28;20060;-74
2022/05/29 05:35:43;;;;;;;9.23;3.97;;;;;;;;;;5032200;28;20440;-74
2022/05/29 05:38:09;;;;;;;10.17;4.27;;;;;;;;;;5030022;28;20041;-75
2022/05/29 05:40:34;;;;;;;7.67;3.73;;;;;;;;;;5031529;28;20412;-74
2022/05/29 05:43:00;;;;;;;9.73;3.77;;;;;;;;;;5030628;28;20033;-74
2022/05/29 05:45:25;;;;;;;23.77;4.37;;;;;;;;;;5031319;28;20029;-74
2022/05/29 05:47:51;;;;;;;8.93;3.40;;;;;;;;;;5030112;28;20025;-75
2022/05/29 05:50:16;;;;;;;7.97;3.20;;;;;;;;;;5029696;28;20030;-74
2022/05/29 05:52:42;;;;;;;7.07;3.57;;;;;;;;;;5030479;28;20025;-75
2022/05/29 05:55:11;;;;;;;8.57;3.30;;;;;;;;;;5030182;28;20436;-75
2022/05/29 05:57:38;;;;;;;6.63;2.87;;;;;;;;;;5030685;28;20033;-75
2022/05/29 06:00:11;;;;;;;5.77;2.80;;;;;;;;;;5029958;28;20021;-74
2022/05/29 06:02:40;;;;;;;10.07;3.67;;;;;;;;;;5030289;28;20048;-75
2022/05/29 06:05:09;;;;;;;3.80;2.40;;;;;;;;;;5031543;28;20450;-74
2022/05/29 06:07:35;;;;;;;6.63;2.47;;;;;;;;;;5030752;28;20052;-74
2022/05/29 06:10:00;;;;;;;7.00;2.50;;;;;;;;;;5030553;28;20049;-77
2022/05/29 06:12:26;;;;;;;4.47;2.80;;;;;;;;;;5029782;28;20124;-74
2022/05/29 06:14:54;;;;;;;6.22;2.80;;;;;;;;;;5031288;28;20045;-76
2022/05/29 06:17:20;;;;;;;6.60;2.80;;;;;;;;;;5031044;28;20026;-75
2022/05/29 06:19:45;;;;;;;4.85;2.67;;;;;;;;;;5029585;28;20052;-75
2022/05/29 06:22:11;;;;;;;9.20;3.70;;;;;;;;;;5031060;28;20469;-75
2022/05/29 06:24:37;;;;;;;7.55;3.25;;;;;;;;;;5031595;28;20083;-75
2022/05/29 06:27:02;;;;;;;4.05;2.83;;;;;;;;;;5031563;28;20127;-75
2022/05/29 06:29:28;;;;;;;5.85;2.53;;;;;;;;;;5032376;28;20034;-75
2022/05/29 06:31:59;;;;;;;6.97;3.10;;;;;;;;;;5030619;28;20029;-75
2022/05/29 06:34:24;;;;;;;7.28;2.88;;;;;;;;;;5030451;28;20036;-75
2022/05/29 06:36:50;;;;;;;6.60;3.30;;;;;;;;;;5031072;28;20029;-75
2022/05/29 06:39:15;;;;;;;10.05;3.60;;;;;;;;;;5030580;28;20044;-76
2022/05/29 06:41:41;;;;;;;7.43;2.65;;;;;;;;;;5029410;28;20032;-75
2022/05/29 06:44:07;;;;;;;5.95;2.83;;;;;;;;;;5030703;28;20037;-75
2022/05/29 06:46:32;;;;;;;9.25;2.90;;;;;;;;;;5012816;28;20048;-75
2022/05/29 06:48:58;;;;;;;5.78;2.70;;;;;;;;;;5029571;28;20029;-76
2022/05/29 06:51:23;;;;;;;5.45;2.90;;;;;;;;;;5029006;28;20056;-74
2022/05/29 06:53:50;;;;;;;6.38;2.70;;;;;;;;;;5029103;28;20116;-75
2022/05/29 06:56:17;;;;;;;8.27;3.08;;;;;;;;;;5028860;28;20079;-74
2022/05/29 06:58:42;;;;;;;6.30;2.67;;;;;;;;;;5030317;28;20095;-75
2022/05/29 07:09:24;;;;;;;7.43;2.80;;;;;;;;;;5029981;28;20032;-74
2022/05/29 07:11:54;;;;;;;6.85;2.17;;;;;;;;;;5029797;28;20041;-73
2022/05/29 07:14:20;;;;;;;6.20;2.45;;;;;;;;;;5029890;28;20322;-74
2022/05/29 07:16:45;;;;;;;7.70;2.00;;;;;;;;;;5012494;28;20055;-75
2022/05/29 07:19:13;;;;;;;5.43;2.35;;;;;;;;;;5027894;28;20474;-74
2022/05/29 07:21:40;;;;;;;8.57;2.50;;;;;;;;;;5011922;28;20036;-75
2022/05/29 07:24:06;;;;;;;6.93;2.40;;;;;;;;;;5028643;28;20029;-75
2022/05/29 07:26:32;;;;;;;6.35;2.42;;;;;;;;;;5030229;28;20072;-75
2022/05/29 07:28:58;;;;;;;5.47;1.60;;;;;;;;;;5030348;28;20029;-75
2022/05/29 07:31:23;;;;;;;4.68;1.60;;;;;;;;;;5028764;28;20397;-75
2022/05/29 07:33:50;;;;;;;3.97;1.02;;;;;;;;;;5029144;28;20148;-75
2022/05/29 07:36:18;;;;;;;4.88;1.60;;;;;;;;;;5028046;28;20030;-75
2022/05/29 07:38:45;;;;;;;5.78;1.67;;;;;;;;;;5029660;28;20026;-75
2022/05/29 07:44:00;;;;;;;4.90;1.50;;;;;;;;;;5028306;28;20037;-75
2022/05/29 07:46:25;;;;;;;9.10;1.60;;;;;;;;;;5029324;28;20033;-75
2022/05/29 07:48:51;;;;;;;4.28;1.92;;;;;;;;;;5029256;28;20033;-74
2022/05/29 07:51:17;;;;;;;4.90;1.30;;;;;;;;;;5027827;28;20119;-74
2022/05/29 07:53:44;;;;;;;6.57;1.35;;;;;;;;;;5028073;28;20029;-75
2022/05/29 07:56:10;;;;;;;7.45;1.42;;;;;;;;;;5027998;28;20033;-75
2022/05/29 07:58:38;;;;;;;8.55;1.77;;;;;;;;;;5029301;28;20057;-72
2022/05/29 08:01:05;;;;;;;4.25;0.82;;;;;;;;;;5029164;28;20029;-70
2022/05/29 08:03:30;;;;;;;9.55;1.83;;;;;;;;;;5027337;28;20033;-71
2022/05/29 08:05:56;;;;;;;8.25;1.85;;;;;;;;;;5029335;28;20080;-72
2022/05/29 08:08:22;;;;;;;4.97;1.70;;;;;;;;;;5028489;28;20041;-72
2022/05/29 08:10:47;;;;;;;7.20;1.50;;;;;;;;;;5029236;28;20393;-71
2022/05/29 08:13:14;;;;;;;3.63;1.33;;;;;;;;;;5028754;28;20489;-72
2022/05/29 08:15:39;;;;;;;6.15;1.08;;;;;;;;;;5027717;28;20029;-71
2022/05/29 08:18:05;;;;;;;4.00;2.03;;;;;;;;;;5027754;28;20038;-72
2022/05/29 08:20:31;;;;;;;4.53;1.20;;;;;;;;;;5027479;28;20032;-72
2022/05/29 08:22:57;;;;;;;5.30;1.45;;;;;;;;;;5012875;28;20042;-71
2022/05/29 08:30:53;;;;;;;5.30;1.20;;;;;;;;;;5008710;28;20032;-72
2022/05/29 08:33:25;;;;;;;2.67;1.20;;;;;;;;;;5010971;28;20524;-71
2022/05/29 08:35:59;;;;;;;5.70;1.33;;;;;;;;;;5013182;28;20025;-71
2022/05/29 08:38:24;;;;;;;7.07;1.30;;;;;;;;;;5011504;28;20033;-71
2022/05/29 08:41:06;;;;;;;5.18;1.55;;;;;;;;;;5011696;28;20091;-71
2022/05/29 08:43:35;;;;;;;5.65;1.33;;;;;;;;;;5011452;28;20033;-73
2022/05/29 08:46:15;;;;;;;6.13;1.60;;;;;;;;;;5023524;28;20039;-71
2022/05/29 08:48:40;;;;;;;4.35;3.10;;;;;;;;;;5032544;28;20048;-71
2022/05/29 08:51:18;;;;;;;6.75;1.55;;;;;;;;;;5031105;28;20017;-71
2022/05/29 08:53:51;;;;;;;6.20;1.70;;;;;;;;;;5031383;28;20116;-70
2022/05/29 08:57:04;;;;;;;3.50;1.67;;;;;;;;;;5030779;28;20029;-72
2022/05/29 08:59:56;;;;;;;7.13;4.10;;;;;;;;;;4985453;28;20037;-73
2022/05/29 09:02:27;;;;;;;4.32;1.88;;;;;;;;;;5030793;28;20021;-72
2022/05/29 09:05:06;;;;;;;7.85;1.83;;;;;;;;;;5031154;28;20033;-72
2022/05/29 09:07:37;;;;;;;2.42;1.33;;;;;;;;;;5030517;28;20037;-72
2022/05/29 09:10:13;;;;;;;5.47;1.70;;;;;;;;;;5014655;28;20051;-73
2022/05/29 09:13:01;;;;;;;7.75;1.85;;;;;;;;;;5031628;28;20083;-72
2022/05/29 09:15:30;;;;;;;5.82;1.45;;;;;;;;;;5031956;28;20561;-73
2022/05/29 09:18:04;;;;;;;11.35;2.00;;;;;;;;;;5030390;28;20021;-72
2022/05/29 09:20:44;;;;;;;4.57;1.35;;;;;;;;;;5031907;28;20037;-72
2022/05/29 09:23:16;;;;;;;8.30;1.38;;;;;;;;;;5032632;28;20040;-71
2022/05/29 09:25:43;;;;;;;5.72;1.40;;;;;;;;;;5031133;28;20393;-72
2022/05/29 09:28:25;;;;;;;4.38;1.45;;;;;;;;;;5030658;28;20405;-72
2022/05/29 09:31:05;;;;;;;4.45;1.38;;;;;;;;;;5030453;28;20044;-72
2022/05/29 09:33:31;;;;;;;2.65;0.95;;;;;;;;;;4998213;28;20462;-72
2022/05/29 09:36:22;;;;;;;7.90;1.70;;;;;;;;;;5029863;28;20449;-72
2022/05/29 09:38:53;;;;;;;5.88;2.00;;;;;;;;;;5031690;28;20477;-72
2022/05/29 09:41:47;;;;;;;5.03;1.77;;;;;;;;;;5030298;28;20021;-73
2022/05/29 09:44:14;;;;;;;7.05;1.35;;;;;;;;;;5031327;28;20025;-74
2022/05/29 09:46:51;;;;;;;3.88;1.77;;;;;;;;;;5031824;28;20053;-72
2022/05/29 09:49:42;;;;;;;7.32;1.67;;;;;;;;;;5031495;28;20041;-71
2022/05/29 09:52:07;;;;;;;8.10;1.67;;;;;;;;;;5030364;28;20098;-71
2022/05/29 09:54:59;;;;;;;5.93;1.60;;;;;;;;;;5029838;28;20033;-72
2022/05/29 09:57:27;;;;;;;;;;;;;;;;;;5024486;28;20037;-72
2022/05/29 10:00:14;;;;;;;5.93;2.08;;;;;;;;;;5031676;28;19913;-70
2022/05/29 10:02:45;;;;;;;9.82;4.38;;;;;;;;;;5030111;28;20376;-72
2022/05/29 10:05:35;;;;;;;5.28;1.75;;;;;;;;;;5029902;28;20136;-72
2022/05/29 10:08:32;;;;;;;5.57;2.33;;;;;;;;;;5031742;28;20026;-73
2022/05/29 10:11:18;;;;;;;8.68;2.50;;;;;;;;;;5030288;28;20041;-72
2022/05/29 10:13:45;;;;;;;1.88;1.00;;;;;;;;;;5030074;28;20543;-73
2022/05/29 10:16:12;;;;;;;4.50;1.27;;;;;;;;;;5030239;28;20499;-72
2022/05/29 10:18:41;;;;;;;3.55;0.98;;;;;;;;;;5029095;28;20076;-72
2022/05/29 10:21:11;;;;;;;7.90;1.50;;;;;;;;;;5029730;28;20025;-72
2022/05/29 10:23:38;;;;;;;11.63;1.52;;;;;;;;;;5029489;28;20064;-72
2022/05/29 10:26:24;;;;;;;4.65;1.25;;;;;;;;;;5030847;28;20496;-72
2022/05/29 10:28:53;;;;;;;4.10;1.08;;;;;;;;;;5029556;28;20041;-73
2022/05/29 10:31:35;;;;;;;5.93;0.90;;;;;;;;;;5029404;28;20027;-73
2022/05/29 10:34:13;;;;;;;7.43;1.60;;;;;;;;;;5029557;28;20061;-74
2022/05/29 10:36:40;;;;;;;4.72;1.38;;;;;;;;;;5030451;28;20036;-73
2022/05/29 10:39:31;;;;;;;4.63;1.00;;;;;;;;;;5029144;28;20454;-72
2022/05/29 10:41:58;;;;;;;4.47;1.23;;;;;;;;;;5031140;28;20021;-73
2022/05/29 10:44:46;;;;;;;4.22;1.17;;;;;;;;;;5029533;28;20033;-71
2022/05/29 10:47:28;;;;;;;2.90;0.90;;;;;;;;;;5030908;28;20030;-70
2022/05/29 10:50:20;;;;;;;6.05;1.88;;;;;;;;;;5030843;28;20100;-72
2022/05/29 10:53:07;;;;;;;3.03;0.95;;;;;;;;;;5030464;28;20112;-72
2022/05/29 10:55:41;;;;;;;4.13;1.10;;;;;;;;;;5029600;28;20052;-71
2022/05/29 10:58:06;;;;;;;4.38;1.20;;;;;;;;;;5029018;28;20116;-72
2022/05/29 11:00:51;;;;;;;7.20;1.55;;;;;;;;;;5029946;28;20113;-72
2022/05/29 11:03:50;;;;;;;6.30;1.58;;;;;;;;;;5062281;28;20030;-72
2022/05/29 11:06:33;;;;;;;7.20;0.88;;;;;;;;;;5029999;28;20021;-72
2022/05/29 11:09:14;;;;;;;6.55;1.52;;;;;;;;;;5028573;28;20120;-70
2022/05/29 11:12:06;;;;;;;3.38;1.08;;;;;;;;;;5028894;28;20032;-71
2022/05/29 11:15:01;;;;;;;1.35;0.98;;;;;;;;;;5024844;28;20390;-72
2022/05/29 11:17:48;;;;;;;2.92;0.90;;;;;;;;;;5029677;28;20037;-73
2022/05/29 11:20:47;;;;;;;2.17;0.77;;;;;;;;;;5029841;28;20041;-74
2022/05/29 11:23:25;;;;;;;4.35;1.17;;;;;;;;;;5011396;28;20170;-72
2022/05/29 11:26:04;;;;;;;0.93;0.65;;;;;;;;;;5008995;28;20022;-73
2022/05/29 11:28:43;;;;;;;2.75;1.10;;;;;;;;;;5010052;28;20501;-73
2022/05/29 11:31:15;;;;;;;2.17;1.20;;;;;;;;;;5008962;28;20033;-73
2022/05/29 11:33:50;;;;;;;1.88;1.05;;;;;;;;;;5010105;28;20682;-71
2022/05/29 11:36:16;;;;;;;2.80;1.45;;;;;;;;;;5010035;28;20044;-71
2022/05/29 11:38:42;;;;;;;1.25;0.98;;;;;;;;;;5009940;28;20030;-70
2022/05/29 11:41:24;;;;;;;2.75;1.08;;;;;;;;;;5008764;28;20030;-71
2022/05/29 11:43:56;;;;;;;;;;;;;;;;;;5011065;28;20022;-71
2022/05/29 11:52:52;;;;;;;1.48;1.08;;;;;;;;;;5010229;28;20037;-72
2022/05/29 11:55:25;;;;;;;3.17;1.23;;;;;;;;;;5009570;28;20038;-74
2022/05/29 11:57:58;;;;;;;6.43;1.65;;;;;;;;;;5008385;28;20036;-72
2022/05/29 12:00:39;;;;;;;2.08;1.30;;;;;;;;;;5009097;28;20018;-72
2022/05/29 12:03:14;;;;;;;5.30;1.67;;;;;;;;;;5009914;28;20025;-71
2022/05/29 12:05:48;;;;;;;3.92;1.48;;;;;;;;;;5008227;28;20044;-72
2022/05/29 12:08:41;;;;;;;6.32;2.38;;;;;;;;;;5008335;28;20037;-72
2022/05/29 12:11:25;;;;;;;4.38;1.48;;;;;;;;;;5008403;28;20018;-72
2022/05/29 12:14:07;;;;;;;2.08;1.80;;;;;;;;;;5009428;28;20056;-73
2022/05/29 12:16:36;;;;;;;6.43;1.65;;;;;;;;;;5008281;28;20072;-71
2022/05/29 12:19:15;;;;;;;2.42;1.50;;;;;;;;;;5009293;28;20053;-71
2022/05/29 12:21:55;;;;;;;2.72;1.45;;;;;;;;;;5013480;28;20481;-71
2022/05/29 12:24:28;;;;;;;3.65;1.40;;;;;;;;;;5028941;28;20026;-70
2022/05/29 12:27:11;;;;;;;5.45;1.80;;;;;;;;;;5028679;28;20053;-73
2022/05/29 12:29:48;;;;;;;6.95;6.32;;;;;;;;;;5027517;28;20103;-73
2022/05/29 12:32:21;;;;;;;1.50;1.20;;;;;;;;;;5027410;28;20029;-71
2022/05/29 12:34:47;;;;;;;4.25;1.30;;;;;;;;;;5028771;28;20045;-72
2022/05/29 12:37:40;;;;;;;2.05;1.25;;;;;;;;;;5027609;28;20132;-71
2022/05/29 12:40:40;;;;;;;2.55;1.15;;;;;;;;;;5027454;28;20033;-71
2022/05/29 12:43:23;;;;;;;1.77;0.90;;;;;;;;;;5028773;28;20105;-72
2022/05/29 12:45:55;;;;;;;2.17;1.30;;;;;;;;;;5028408;28;20068;-71
2022/05/29 12:48:56;;;;;;;1.10;1.00;;;;;;;;;;5027760;28;20063;-71
2022/05/29 12:51:59;;;;;;;1.75;1.20;;;;;;;;;;5029021;28;20178;-70
2022/05/29 12:54:28;;;;;;;;;;;;;;;;;;5028343;28;20021;-73
2022/05/29 12:57:29;;;;;;;1.77;1.55;;;;;;;;;;5028848;28;19952;-73
2022/05/29 13:00:09;;;;;;;3.25;1.52;;;;;;;;;;5028699;28;20546;-73
2022/05/29 13:03:12;;;;;;;5.57;1.67;;;;;;;;;;5027305;28;20044;-72
2022/05/29 13:06:06;;;;;;;2.35;1.23;;;;;;;;;;5026973;28;20061;-73
2022/05/29 13:08:56;;;;;;;2.50;1.13;;;;;;;;;;5026893;28;20053;-72
2022/05/29 13:11:31;;;;;;;1.92;1.60;;;;;;;;;;5027401;28;20100;-71
2022/05/29 13:14:03;;;;;;;2.05;0.98;;;;;;;;;;5028834;28;20056;-72
2022/05/29 13:16:40;;;;;;;2.33;1.30;;;;;;;;;;5028208;28;20026;-72
2022/05/29 13:19:13;;;;;;;2.25;1.38;;;;;;;;;;5030206;28;20061;-73
2022/05/29 13:22:05;;;;;;;1.65;1.25;;;;;;;;;;5032026;28;20067;-73
2022/05/29 13:24:34;;;;;;;4.40;0.98;;;;;;;;;;5031875;28;20025;-73
2022/05/29 13:27:09;;;;;;;5.10;0.80;;;;;;;;;;5031286;28;20488;-73
2022/05/29 13:29:45;;;;;;;1.27;0.85;;;;;;;;;;5029286;28;20434;-73
2022/05/29 13:32:14;;;;;;;1.75;0.70;;;;;;;;;;5031202;28;20070;-72
2022/05/29 13:34:40;;;;;;;1.17;0.80;;;;;;;;;;5030430;28;20037;-73
2022/05/29 13:37:09;;;;;;;7.03;4.63;;;;;;;;;;5031257;28;20496;-73
2022/05/29 13:39:37;;;;;;;2.10;1.10;;;;;;;;;;5031648;28;20148;-72
2022/05/29 13:42:24;;;;;;;0.95;0.80;;;;;;;;;;5031728;28;20028;-71
2022/05/29 13:44:50;;;;;;;2.28;0.70;;;;;;;;;;5031560;28;20509;-72
2022/05/29 13:47:18;;;;;;;2.45;0.90;;;;;;;;;;5030220;28;20040;-71
2022/05/29 13:49:48;;;;;;;1.02;0.68;;;;;;;;;;5030190;28;20388;-74
2022/05/29 13:52:48;;;;;;;2.15;0.60;;;;;;;;;;5014176;28;20144;-73
2022/05/29 13:55:30;;;;;;;2.70;0.73;;;;;;;;;;5031171;28;20119;-74
2022/05/29 14:04:01;;;;;;;0.85;0.70;;;;;;;;;;5031905;28;20068;-73
2022/05/29 14:06:30;;;;;;;0.98;0.80;;;;;;;;;;5030031;28;20063;-73
2022/05/29 14:09:06;;;;;;;2.92;0.88;;;;;;;;;;5029810;28;20120;-72
2022/05/29 14:12:03;;;;;;;1.55;0.70;;;;;;;;;;5029680;28;20064;-72
2022/05/29 14:14:34;;;;;;;1.17;0.70;;;;;;;;;;5030006;28;20047;-72
2022/05/29 14:17:13;;;;;;;3.58;0.80;;;;;;;;;;5029615;28;20033;-72
2022/05/29 14:20:12;;;;;;;5.78;0.85;;;;;;;;;;5029370;28;20099;-71
2022/05/29 14:22:47;;;;;;;1.95;0.90;;;;;;;;;;5029328;28;20036;-71
2022/05/29 14:25:26;;;;;;;2.10;0.93;;;;;;;;;;5029503;28;20028;-73
2022/05/29 14:28:08;;;;;;;3.03;0.85;;;;;;;;;;5029659;28;20128;-71
2022/05/29 14:30:59;;;;;;;4.40;0.90;;;;;;;;;;5029338;28;20551;-71
2022/05/29 14:33:40;;;;;;;1.17;0.82;;;;;;;;;;5029381;28;20029;-71
2022/05/29 14:36:20;;;;;;;;;;;;;;;;;;5029925;28;20029;-72
2022/05/29 14:39:39;;;;;;;1.50;1.15;;;;;;;;;;5030542;28;19908;-72
2022/05/29 14:42:29;;;;;;;4.43;0.75;;;;;;;;;;4972044;28;20037;-72
2022/05/29 14:45:15;;;;;;;1.67;1.45;;;;;;;;;;5030109;28;20040;-73
2022/05/29 14:47:54;;;;;;;5.43;0.80;;;;;;;;;;5029078;28;20068;-70
2022/05/29 14:50:29;;;;;;;1.45;1.10;;;;;;;;;;5030675;28;20029;-72
2022/05/29 14:53:20;;;;;;;2.15;0.75;;;;;;;;;;5029195;28;20029;-72
2022/05/29 14:55:58;;;;;;;2.63;0.90;;;;;;;;;;5028676;28;20317;-74
2022/05/29 14:58:42;;;;;;;6.70;1.08;;;;;;;;;;5030788;28;20025;-74
2022/05/29 15:01:36;;;;;;;1.80;0.80;;;;;;;;;;5028820;28;20542;-71
2022/05/29 15:04:03;;;;;;;2.30;1.02;;;;;;;;;;5029102;28;20540;-72
2022/05/29 15:10:30;;;;;;;4.13;1.13;;;;;;;;;;5028802;28;20036;-72
2022/05/29 15:12:31;;;;;;;2.55;0.95;;;;;;;;;;5030144;28;20028;-73
2022/05/29 15:15:19;;;;;;;3.97;1.13;;;;;;;;;;5028108;28;20025;-71
2022/05/29 15:17:44;;;;;;;1.63;0.80;;;;;;;;;;5028285;28;20029;-73
2022/05/29 15:26:06;;;;;;;2.45;1.33;;;;;;;;;;5030075;28;20036;-72
2022/05/29 15:28:37;;;;;;;1.63;0.95;;;;;;;;;;5028361;28;20021;-72
2022/05/29 15:31:04;;;;;;;2.45;1.50;;;;;;;;;;5028399;28;20055;-74
2022/05/29 15:33:55;;;;;;;4.65;3.58;;;;;;;;;;5029092;28;20033;-70
2022/05/29 15:36:31;;;;;;;2.05;1.08;;;;;;;;;;5029663;28;20091;-72
2022/05/29 15:39:11;;;;;;;6.55;3.25;;;;;;;;;;5029205;28;20034;-72
2022/05/29 15:41:43;;;;;;;4.53;1.73;;;;;;;;;;5027961;28;20421;-71
2022/05/29 15:44:43;;;;;;;2.88;1.27;;;;;;;;;;5028447;28;20397;-71
2022/05/29 15:47:24;;;;;;;1.63;0.85;;;;;;;;;;5026943;28;20033;-71
2022/05/29 15:50:19;;;;;;;2.25;1.50;;;;;;;;;;5028200;28;20401;-71
2022/05/29 15:52:54;;;;;;;1.70;1.17;;;;;;;;;;5028186;28;20036;-72
2022/05/29 15:55:48;;;;;;;3.47;1.20;;;;;;;;;;5029594;28;20033;-72
2022/05/29 15:58:24;;;;;;;6.28;2.45;;;;;;;;;;5028539;28;20105;-72
2022/05/29 16:01:09;;;;;;;2.70;1.38;;;;;;;;;;5028799;28;20088;-72
2022/05/29 16:03:36;;;;;;;2.20;1.90;;;;;;;;;;5027438;28;20033;-71
2022/05/29 16:06:22;;;;;;;1.52;1.23;;;;;;;;;;5011412;28;20095;-74
2022/05/29 16:08:51;;;;;;;5.30;1.42;;;;;;;;;;5028853;28;20025;-72
2022/05/29 16:11:34;;;;;;;0.90;0.90;;;;;;;;;;5029158;28;20048;-72
2022/05/29 16:14:01;;;;;;;4.43;1.42;;;;;;;;;;5029537;28;20025;-72